Time;durP1;ratioP1;P1;durP2;ratioP2;P2;SDS_P1;SDS_P2;PMS_P1;PMS_P2;Temp;Humidity;BMP_temperature;BMP_pressure;BME280_temperature;BME280_humidity;BME280_pressure;Samples;Min_cycle;Max_cycle;Signal;HPM_P1;HPM_P2
2022/09/18 00:01:28;;;;;;;0.30;0.30;;;21.40;58.30;;;;;;5084032;28;20255;-62
2022/09/18 00:03:58;;;;;;;0.40;0.40;;;21.30;58.20;;;;;;5083956;28;20044;-61
2022/09/18 00:06:27;;;;;;;0.35;0.35;;;21.40;58.30;;;;;;5084186;28;20017;-62
2022/09/18 00:08:56;;;;;;;0.20;0.20;;;21.40;58.30;;;;;;5083932;28;20244;-63
2022/09/18 00:11:24;;;;;;;0.30;0.30;;;21.40;58.20;;;;;;5083699;28;20016;-63
2022/09/18 00:13:50;;;;;;;0.30;0.30;;;21.40;58.20;;;;;;5083895;28;20127;-62
2022/09/18 00:16:19;;;;;;;0.20;0.20;;;21.40;58.20;;;;;;5083823;28;20275;-62
2022/09/18 00:18:44;;;;;;;;;;;21.40;58.20;;;;;;5084151;28;20027;-61
2022/09/18 00:21:16;;;;;;;0.50;0.47;;;21.40;58.30;;;;;;5083760;28;19924;-61
2022/09/18 00:23:43;;;;;;;0.30;0.30;;;21.40;58.30;;;;;;5083674;28;20053;-61
2022/09/18 00:26:10;;;;;;;0.17;0.17;;;21.40;58.20;;;;;;5083679;28;20020;-62
2022/09/18 00:28:37;;;;;;;0.30;0.30;;;21.40;58.30;;;;;;5083644;28;20022;-61
2022/09/18 00:31:14;;;;;;;0.13;0.13;;;21.30;58.20;;;;;;5083595;28;20012;-62
2022/09/18 00:33:40;;;;;;;0.20;0.20;;;21.30;58.20;;;;;;5083616;28;20016;-62
2022/09/18 00:36:08;;;;;;;0.38;0.38;;;21.30;58.20;;;;;;5083559;28;20062;-61
2022/09/18 00:38:34;;;;;;;;;;;21.30;58.30;;;;;;5084000;28;20088;-61
2022/09/18 00:41:02;;;;;;;0.30;0.30;;;21.30;58.30;;;;;;5083521;28;20206;-62
2022/09/18 00:43:30;;;;;;;0.50;0.40;;;21.30;58.20;;;;;;5083471;28;20023;-61
2022/09/18 00:46:00;;;;;;;0.30;0.30;;;21.30;58.20;;;;;;5083473;28;20245;-61
2022/09/18 00:48:39;;;;;;;0.40;0.22;;;21.30;58.20;;;;;;5083443;28;20369;-61
2022/09/18 00:51:05;;;;;;;0.30;0.30;;;21.30;58.10;;;;;;5083765;28;20085;-61
2022/09/18 00:53:34;;;;;;;0.32;0.30;;;21.30;58.20;;;;;;5083413;28;20039;-61
2022/09/18 00:56:01;;;;;;;0.30;0.30;;;21.30;58.30;;;;;;5083362;28;20044;-62
2022/09/18 00:58:27;;;;;;;0.90;0.40;;;21.30;58.30;;;;;;5083357;28;20025;-62
2022/09/18 01:00:54;;;;;;;0.30;0.30;;;21.30;58.20;;;;;;5083331;28;20023;-61
2022/09/18 01:03:20;;;;;;;0.30;0.30;;;21.30;58.30;;;;;;5084190;28;20027;-61
2022/09/18 01:06:21;;;;;;;0.13;0.13;;;21.30;58.30;;;;;;5087390;28;20016;-62
2022/09/18 01:09:13;;;;;;;0.50;0.50;;;21.30;58.30;;;;;;5087364;28;20012;-61
2022/09/18 01:11:55;;;;;;;0.40;0.40;;;21.20;58.20;;;;;;5086725;28;20032;-61
2022/09/18 01:14:40;;;;;;;0.30;0.30;;;21.30;58.30;;;;;;5087278;28;20020;-61
2022/09/18 01:17:08;;;;;;;0.30;0.30;;;21.20;58.20;;;;;;5087224;28;20016;-62
2022/09/18 01:19:55;;;;;;;0.40;0.40;;;21.30;58.30;;;;;;5087174;28;20243;-63
2022/09/18 01:22:36;;;;;;;0.20;0.20;;;21.30;58.30;;;;;;5087127;28;20028;-61
2022/09/18 01:25:36;;;;;;;0.43;0.30;;;21.30;58.30;;;;;;5087072;28;20304;-63
2022/09/18 01:28:20;;;;;;;0.30;0.30;;;21.30;58.30;;;;;;5086982;28;20035;-61
2022/09/18 01:30:49;;;;;;;0.50;0.40;;;21.30;58.30;;;;;;5086947;28;20023;-62
2022/09/18 01:33:52;;;;;;;0.32;0.30;;;21.20;58.30;;;;;;5086853;28;20312;-62
2022/09/18 01:36:20;;;;;;;0.35;0.30;;;21.20;58.30;;;;;;5053101;28;20055;-62
2022/09/18 01:39:16;;;;;;;0.30;0.20;;;21.30;58.30;;;;;;5086773;28;20028;-63
2022/09/18 01:41:49;;;;;;;0.17;0.17;;;21.20;58.20;;;;;;5086731;28;20020;-62
2022/09/18 01:44:19;;;;;;;0.43;0.40;;;21.20;58.30;;;;;;5086601;28;20028;-63
2022/09/18 01:46:49;;;;;;;0.63;0.40;;;21.20;58.30;;;;;;5086891;28;20016;-62
2022/09/18 01:49:20;;;;;;;0.60;0.60;;;21.20;58.20;;;;;;5086555;28;20024;-61
2022/09/18 01:52:00;;;;;;;0.88;0.40;;;21.20;58.20;;;;;;5086548;28;20040;-63
2022/09/18 01:54:31;;;;;;;0.30;0.30;;;21.20;58.30;;;;;;5086478;28;20073;-62
2022/09/18 01:57:06;;;;;;;0.73;0.30;;;21.20;58.30;;;;;;5086434;28;20024;-62
2022/09/18 01:59:41;;;;;;;0.30;0.30;;;21.20;58.30;;;;;;5086386;28;20031;-60
2022/09/18 02:02:15;;;;;;;0.20;0.20;;;21.20;58.30;;;;;;5086362;28;20031;-63
2022/09/18 02:04:43;;;;;;;0.40;0.35;;;21.20;58.30;;;;;;5086243;28;20026;-61
2022/09/18 02:07:31;;;;;;;0.35;0.35;;;21.20;58.30;;;;;;5086262;28;20023;-61
2022/09/18 02:09:58;;;;;;;0.30;0.30;;;21.20;58.30;;;;;;5086210;28;20017;-62
2022/09/18 02:12:27;;;;;;;0.38;0.35;;;21.20;58.30;;;;;;5085461;28;20040;-62
2022/09/18 02:14:59;;;;;;;0.40;0.40;;;21.20;58.30;;;;;;5084530;28;20020;-61
2022/09/18 02:17:31;;;;;;;0.40;0.30;;;21.20;58.10;;;;;;5084913;28;20079;-61
2022/09/18 02:20:02;;;;;;;0.50;0.50;;;21.20;58.20;;;;;;5084911;28;20020;-62
2022/09/18 02:22:30;;;;;;;0.30;0.30;;;21.20;58.30;;;;;;5084799;28;20016;-61
2022/09/18 02:25:03;;;;;;;0.80;0.45;;;21.10;58.20;;;;;;5084805;28;20021;-62
2022/09/18 02:27:32;;;;;;;0.40;0.40;;;21.10;58.10;;;;;;5084778;28;20091;-61
2022/09/18 02:30:01;;;;;;;0.17;0.17;;;21.20;58.20;;;;;;5084759;28;20068;-61
2022/09/18 02:32:27;;;;;;;0.30;0.22;;;21.20;58.30;;;;;;5084677;28;20036;-62
2022/09/18 02:34:53;;;;;;;0.30;0.30;;;21.10;58.20;;;;;;5084906;28;20016;-62
2022/09/18 02:37:47;;;;;;;0.38;0.28;;;21.10;58.30;;;;;;5084589;28;20093;-61
2022/09/18 02:40:20;;;;;;;0.40;0.40;;;21.20;58.30;;;;;;5084604;28;20020;-62
2022/09/18 02:42:56;;;;;;;0.30;0.30;;;21.20;58.30;;;;;;5084491;28;20039;-62
2022/09/18 02:45:29;;;;;;;0.30;0.30;;;21.10;58.20;;;;;;5084531;28;20044;-63
2022/09/18 02:48:18;;;;;;;0.43;0.43;;;21.10;58.30;;;;;;5084421;28;20020;-61
2022/09/18 02:51:06;;;;;;;0.25;0.25;;;21.10;58.20;;;;;;5084469;28;20012;-62
2022/09/18 02:54:01;;;;;;;0.40;0.40;;;21.10;58.30;;;;;;5084364;28;20016;-61
2022/09/18 02:56:41;;;;;;;0.30;0.30;;;21.10;58.30;;;;;;5084596;28;20030;-62
2022/09/18 02:59:23;;;;;;;0.40;0.40;;;21.10;58.30;;;;;;5084278;28;20040;-62
2022/09/18 03:01:49;;;;;;;0.30;0.30;;;21.10;58.30;;;;;;5084221;28;20231;-62
2022/09/18 03:04:21;;;;;;;0.30;0.30;;;21.10;58.30;;;;;;5084072;28;20061;-61
2022/09/18 03:06:46;;;;;;;0.50;0.30;;;21.10;58.30;;;;;;5084140;28;20088;-61
2022/09/18 03:09:14;;;;;;;0.50;0.50;;;21.10;58.30;;;;;;5084087;28;20024;-62
2022/09/18 03:11:40;;;;;;;0.20;0.20;;;21.10;58.30;;;;;;5040777;28;1232245;-60
2022/09/18 03:14:06;;;;;;;0.38;0.32;;;21.10;58.40;;;;;;5084974;28;20029;-61
2022/09/18 03:16:32;;;;;;;0.30;0.30;;;21.10;58.40;;;;;;5084850;28;20050;-61
2022/09/18 03:18:58;;;;;;;0.20;0.20;;;21.10;58.40;;;;;;5084867;28;20020;-62
2022/09/18 03:21:26;;;;;;;0.32;0.20;;;21.10;58.40;;;;;;5084792;28;20051;-62
2022/09/18 03:23:52;;;;;;;0.32;0.32;;;21.10;58.40;;;;;;5084702;28;20082;-62
2022/09/18 03:26:18;;;;;;;0.30;0.30;;;21.10;58.40;;;;;;5083919;28;20316;-63
2022/09/18 03:28:44;;;;;;;0.40;0.40;;;21.10;58.40;;;;;;5084671;28;20028;-62
2022/09/18 03:31:10;;;;;;;0.68;0.43;;;21.00;58.40;;;;;;5084658;28;20177;-62
2022/09/18 03:33:37;;;;;;;0.43;0.30;;;21.00;58.40;;;;;;5084558;28;20043;-62
2022/09/18 03:36:07;;;;;;;0.73;0.30;;;21.10;58.40;;;;;;5084512;28;20439;-61
2022/09/18 03:38:36;;;;;;;0.30;0.30;;;21.00;58.40;;;;;;5084473;28;20304;-61
2022/09/18 03:41:03;;;;;;;0.50;0.47;;;21.00;58.40;;;;;;5084367;28;20231;-62
2022/09/18 03:43:29;;;;;;;0.30;0.30;;;21.00;58.40;;;;;;5084287;28;20024;-61
2022/09/18 03:45:54;;;;;;;0.32;0.32;;;21.00;58.40;;;;;;5084287;28;20038;-60
2022/09/18 03:48:20;;;;;;;0.50;0.40;;;21.00;58.40;;;;;;5084320;28;20016;-60
2022/09/18 03:50:49;;;;;;;0.45;0.45;;;21.00;58.30;;;;;;5084242;28;20250;-61
2022/09/18 03:53:15;;;;;;;0.30;0.30;;;21.00;58.40;;;;;;5084186;28;20048;-61
2022/09/18 03:55:41;;;;;;;0.70;0.38;;;21.00;58.30;;;;;;5084137;28;20020;-61
2022/09/18 03:58:07;;;;;;;0.45;0.45;;;21.00;58.40;;;;;;5084069;28;20025;-60
2022/09/18 04:00:33;;;;;;;0.43;0.40;;;21.00;58.30;;;;;;5084033;28;20023;-62
2022/09/18 04:02:59;;;;;;;0.30;0.22;;;21.00;58.40;;;;;;5083917;28;20240;-61
2022/09/18 04:05:25;;;;;;;0.30;0.28;;;21.00;58.30;;;;;;5083939;28;20027;-61
2022/09/18 04:07:51;;;;;;;0.32;0.30;;;21.00;58.40;;;;;;5083935;28;20024;-61
2022/09/18 04:10:17;;;;;;;0.38;0.30;;;21.00;58.40;;;;;;5083915;28;20016;-61
2022/09/18 04:12:44;;;;;;;0.20;0.20;;;21.00;58.40;;;;;;5083679;28;20036;-61
2022/09/18 04:15:10;;;;;;;0.25;0.20;;;21.00;58.40;;;;;;5084091;28;20099;-61
2022/09/18 04:17:35;;;;;;;0.30;0.30;;;21.00;58.40;;;;;;5083773;28;20016;-62
2022/09/18 04:20:01;;;;;;;0.30;0.30;;;21.00;58.40;;;;;;5083805;28;20060;-62
2022/09/18 04:22:27;;;;;;;0.30;0.30;;;21.00;59.00;;;;;;5084069;28;20390;-62
2022/09/18 04:24:53;;;;;;;0.35;0.35;;;21.00;58.30;;;;;;5083622;28;20035;-61
2022/09/18 04:27:18;;;;;;;0.40;0.40;;;21.00;58.50;;;;;;5083683;28;20101;-61
2022/09/18 04:29:44;;;;;;;0.40;0.30;;;21.00;58.30;;;;;;5083674;28;20244;-60
2022/09/18 04:32:10;;;;;;;0.43;0.30;;;21.00;58.40;;;;;;5083644;28;20025;-60
2022/09/18 04:34:39;;;;;;;0.38;0.32;;;20.90;58.30;;;;;;5083614;28;20039;-60
2022/09/18 04:37:04;;;;;;;0.40;0.40;;;21.00;58.40;;;;;;5083461;28;20048;-62
2022/09/18 04:39:31;;;;;;;0.60;0.45;;;20.90;58.40;;;;;;5083560;28;20028;-60
2022/09/18 04:41:58;;;;;;;0.40;0.20;;;20.90;58.30;;;;;;5083795;28;20212;-61
2022/09/18 04:44:24;;;;;;;0.30;0.30;;;20.90;58.40;;;;;;5083445;28;20023;-62
2022/09/18 04:46:50;;;;;;;0.40;0.40;;;20.90;58.20;;;;;;5083459;28;20048;-62
2022/09/18 04:49:15;;;;;;;0.28;0.20;;;20.90;58.40;;;;;;5083451;28;20066;-62
2022/09/18 04:51:41;;;;;;;0.35;0.35;;;21.00;58.40;;;;;;5083451;28;20027;-61
2022/09/18 04:54:08;;;;;;;0.22;0.22;;;20.90;58.30;;;;;;5083392;28;20016;-61
2022/09/18 04:56:34;;;;;;;0.20;0.20;;;20.90;58.30;;;;;;5083630;28;20084;-62
2022/09/18 04:59:00;;;;;;;0.40;0.40;;;20.90;58.30;;;;;;5083347;28;20016;-61
2022/09/18 05:01:25;;;;;;;0.30;0.30;;;20.90;58.30;;;;;;5083353;28;20020;-61
2022/09/18 05:03:51;;;;;;;0.20;0.20;;;21.00;58.40;;;;;;5083237;28;20114;-62
2022/09/18 05:06:17;;;;;;;0.30;0.30;;;21.00;58.30;;;;;;5083284;28;20074;-61
2022/09/18 05:08:43;;;;;;;0.30;0.30;;;20.90;58.30;;;;;;5083262;28;20012;-61
2022/09/18 05:11:08;;;;;;;0.30;0.30;;;21.00;58.30;;;;;;5083244;28;20020;-60
2022/09/18 05:13:34;;;;;;;0.20;0.20;;;21.00;58.30;;;;;;5083067;28;20059;-63
2022/09/18 05:16:00;;;;;;;1.65;0.30;;;20.90;58.30;;;;;;5083187;28;20081;-63
2022/09/18 05:18:26;;;;;;;0.50;0.50;;;20.90;58.30;;;;;;5083157;28;20327;-63
2022/09/18 05:20:53;;;;;;;0.30;0.30;;;20.90;58.30;;;;;;5083121;28;20024;-62
2022/09/18 05:23:20;;;;;;;0.40;0.40;;;20.90;58.30;;;;;;5083104;28;20020;-62
2022/09/18 05:25:45;;;;;;;0.30;0.30;;;20.90;58.20;;;;;;5083110;28;20048;-63
2022/09/18 05:28:14;;;;;;;0.30;0.30;;;20.90;58.30;;;;;;5083061;28;20066;-62
2022/09/18 05:30:40;;;;;;;0.32;0.30;;;20.90;58.30;;;;;;5083046;28;20024;-63
2022/09/18 05:33:08;;;;;;;0.40;0.40;;;20.90;58.30;;;;;;5083013;28;20084;-62
2022/09/18 05:35:35;;;;;;;0.30;0.30;;;20.90;58.20;;;;;;5083029;28;20018;-62
2022/09/18 05:38:01;;;;;;;0.50;0.50;;;20.90;58.30;;;;;;5082970;28;20045;-61
2022/09/18 05:40:30;;;;;;;0.75;0.50;;;20.90;58.30;;;;;;5082949;28;20223;-61
2022/09/18 05:42:57;;;;;;;0.38;0.38;;;20.90;58.30;;;;;;5082823;28;20016;-60
2022/09/18 05:45:23;;;;;;;1.05;0.40;;;20.90;58.30;;;;;;5083167;28;20012;-62
2022/09/18 05:47:54;;;;;;;0.50;0.50;;;20.90;58.30;;;;;;5082876;28;20016;-61
2022/09/18 05:50:20;;;;;;;0.30;0.30;;;20.90;58.30;;;;;;5085193;28;20013;-62
2022/09/18 05:52:46;;;;;;;0.30;0.30;;;20.90;58.20;;;;;;5086531;28;20071;-62
2022/09/18 05:55:15;;;;;;;0.40;0.40;;;20.90;58.10;;;;;;5086498;28;20009;-61
2022/09/18 05:57:41;;;;;;;0.75;0.60;;;20.90;58.20;;;;;;5086396;28;20017;-61
2022/09/18 06:00:07;;;;;;;0.40;0.35;;;20.90;58.20;;;;;;5086396;28;20119;-61
2022/09/18 06:02:33;;;;;;;0.28;0.28;;;20.90;58.20;;;;;;5086318;28;20335;-62
2022/09/18 06:04:58;;;;;;;0.10;0.10;;;20.90;58.20;;;;;;5086300;28;20027;-61
2022/09/18 06:07:24;;;;;;;0.30;0.30;;;20.90;58.30;;;;;;5086284;28;20016;-62
2022/09/18 06:09:50;;;;;;;0.30;0.17;;;20.90;58.30;;;;;;5086247;28;20013;-62
2022/09/18 06:12:16;;;;;;;0.30;0.30;;;20.90;58.20;;;;;;5086022;28;20043;-62
2022/09/18 06:14:41;;;;;;;0.43;0.40;;;20.90;58.30;;;;;;5086166;28;20024;-61
2022/09/18 06:17:07;;;;;;;0.30;0.28;;;20.90;58.10;;;;;;5086113;28;20208;-62
2022/09/18 06:19:34;;;;;;;0.52;0.30;;;20.90;58.20;;;;;;5086328;28;20024;-61
2022/09/18 06:21:59;;;;;;;0.63;0.40;;;20.90;58.20;;;;;;5086018;28;20020;-62
2022/09/18 06:24:25;;;;;;;0.30;0.30;;;20.90;58.30;;;;;;5086174;28;20021;-61
2022/09/18 06:26:51;;;;;;;0.32;0.32;;;20.90;58.30;;;;;;5085934;28;20016;-61
2022/09/18 06:29:16;;;;;;;0.25;0.22;;;20.90;58.00;;;;;;5085868;28;20020;-62
2022/09/18 06:31:42;;;;;;;0.28;0.28;;;20.80;58.20;;;;;;5085830;28;20080;-60
2022/09/18 06:34:08;;;;;;;1.65;0.20;;;20.80;58.20;;;;;;5085783;28;20052;-62
2022/09/18 06:36:34;;;;;;;0.20;0.20;;;20.80;58.10;;;;;;5085761;28;20020;-62
2022/09/18 06:38:59;;;;;;;0.38;0.28;;;20.80;58.30;;;;;;5085689;28;20021;-61
2022/09/18 06:41:25;;;;;;;0.20;0.20;;;20.90;58.20;;;;;;5085619;28;20043;-61
2022/09/18 06:43:51;;;;;;;0.22;0.22;;;20.90;58.20;;;;;;5085485;28;20094;-61
2022/09/18 06:46:17;;;;;;;0.65;0.55;;;20.90;58.10;;;;;;5085543;28;20020;-60
2022/09/18 06:48:42;;;;;;;0.30;0.30;;;20.90;57.80;;;;;;5085501;28;20019;-61
2022/09/18 06:51:08;;;;;;;0.30;0.30;;;20.90;58.00;;;;;;5085433;28;20013;-61
2022/09/18 06:53:34;;;;;;;0.28;0.28;;;20.90;58.00;;;;;;5085399;28;20324;-61
2022/09/18 06:56:02;;;;;;;0.25;0.25;;;20.90;57.90;;;;;;5085344;28;20020;-62
2022/09/18 06:58:28;;;;;;;0.43;0.30;;;20.90;57.80;;;;;;5085315;28;20373;-62
2022/09/18 07:00:58;;;;;;;0.30;0.30;;;20.90;57.90;;;;;;5084078;28;20040;-61
2022/09/18 07:03:24;;;;;;;0.40;0.40;;;20.90;58.00;;;;;;5085119;28;20056;-60
2022/09/18 07:05:50;;;;;;;0.10;0.10;;;20.90;57.90;;;;;;5085164;28;20324;-61
2022/09/18 07:08:16;;;;;;;0.40;0.40;;;20.90;57.70;;;;;;5085117;28;20020;-61
2022/09/18 07:10:42;;;;;;;0.40;0.20;;;21.00;57.70;;;;;;5085071;28;20016;-62
2022/09/18 07:13:08;;;;;;;0.40;0.40;;;20.90;57.70;;;;;;5084864;28;20040;-62
2022/09/18 07:15:33;;;;;;;1.08;0.30;;;20.90;57.90;;;;;;5084929;28;20027;-62
2022/09/18 07:18:01;;;;;;;0.25;0.25;;;20.90;57.60;;;;;;5084874;28;20074;-61
2022/09/18 07:20:28;;;;;;;0.30;0.30;;;20.90;57.80;;;;;;5084883;28;20088;-62
2022/09/18 07:22:59;;;;;;;0.20;0.20;;;21.00;57.80;;;;;;5084751;28;20228;-61
2022/09/18 07:25:28;;;;;;;0.20;0.20;;;21.00;57.70;;;;;;5085014;28;20074;-62
2022/09/18 07:27:53;;;;;;;0.40;0.40;;;21.00;57.70;;;;;;5084720;28;20023;-62
2022/09/18 07:30:20;;;;;;;0.30;0.30;;;20.90;57.50;;;;;;5066836;28;20088;-62
2022/09/18 07:32:46;;;;;;;0.22;0.20;;;20.90;58.30;;;;;;5084564;28;20153;-62
2022/09/18 07:35:12;;;;;;;0.15;0.15;;;21.00;57.60;;;;;;5084478;28;20031;-62
2022/09/18 07:37:38;;;;;;;0.28;0.20;;;21.00;57.40;;;;;;5084748;28;20038;-62
2022/09/18 07:40:08;;;;;;;0.30;0.30;;;21.00;57.70;;;;;;5084479;28;20296;-62
2022/09/18 07:42:34;;;;;;;0.22;0.22;;;20.90;58.10;;;;;;5066567;28;20021;-61
2022/09/18 07:45:04;;;;;;;0.65;0.20;;;20.90;57.90;;;;;;5084298;28;20208;-62
2022/09/18 07:47:30;;;;;;;0.73;0.30;;;20.90;57.80;;;;;;5084315;28;20022;-62
2022/09/18 07:49:56;;;;;;;0.40;0.40;;;20.90;57.90;;;;;;5084308;28;20047;-62
2022/09/18 07:52:21;;;;;;;0.20;0.20;;;20.90;58.20;;;;;;5066465;28;20084;-62
2022/09/18 07:54:47;;;;;;;0.50;0.50;;;20.90;58.00;;;;;;5084188;28;20055;-62
2022/09/18 07:57:13;;;;;;;0.30;0.20;;;20.80;58.20;;;;;;5084126;28;20040;-62
2022/09/18 07:59:39;;;;;;;0.30;0.30;;;20.80;58.00;;;;;;5084093;28;20332;-61
2022/09/18 08:02:05;;;;;;;0.43;0.30;;;20.80;58.20;;;;;;5084077;28;20027;-61
2022/09/18 08:04:31;;;;;;;0.85;0.30;;;20.80;58.40;;;;;;5083963;28;20032;-61
2022/09/18 08:07:02;;;;;;;0.13;0.13;;;20.80;58.30;;;;;;5083947;28;20334;-63
2022/09/18 08:09:28;;;;;;;0.65;0.30;;;20.80;58.30;;;;;;5083995;28;20040;-62
2022/09/18 08:11:53;;;;;;;0.70;0.52;;;20.80;58.40;;;;;;5083431;28;20354;-62
2022/09/18 08:14:19;;;;;;;0.40;0.22;;;20.80;58.30;;;;;;5083890;28;20059;-63
2022/09/18 08:16:45;;;;;;;0.55;0.45;;;20.80;58.30;;;;;;5083830;28;20024;-62
2022/09/18 08:19:11;;;;;;;0.65;0.50;;;20.80;58.40;;;;;;5083796;28;20024;-62
2022/09/18 08:21:38;;;;;;;0.35;0.28;;;20.80;57.90;;;;;;5083786;28;20087;-61
2022/09/18 08:24:04;;;;;;;0.22;0.22;;;20.80;58.00;;;;;;5083664;28;20020;-63
2022/09/18 08:26:30;;;;;;;0.40;0.40;;;20.80;58.10;;;;;;5083696;28;20086;-61
2022/09/18 08:28:55;;;;;;;0.28;0.28;;;20.80;58.30;;;;;;5083697;28;20016;-63
2022/09/18 08:31:21;;;;;;;0.47;0.47;;;20.80;58.30;;;;;;5083662;28;20071;-62
2022/09/18 08:33:47;;;;;;;0.15;0.15;;;20.90;58.10;;;;;;5083632;28;20021;-61
2022/09/18 08:36:13;;;;;;;0.17;0.17;;;20.90;58.10;;;;;;5083596;28;20028;-61
2022/09/18 08:38:38;;;;;;;0.28;0.28;;;20.90;58.00;;;;;;5083592;28;20058;-61
2022/09/18 08:41:39;;;;;;;0.20;0.20;;;20.90;57.70;;;;;;5083500;28;20024;-63
2022/09/18 08:44:22;;;;;;;0.85;0.30;;;20.90;57.90;;;;;;5083792;28;20042;-61
2022/09/18 08:46:55;;;;;;;0.50;0.30;;;21.00;57.60;;;;;;5083515;28;20013;-60
2022/09/18 08:49:41;;;;;;;0.40;0.20;;;21.00;57.60;;;;;;5083461;28;20042;-61
2022/09/18 08:52:22;;;;;;;0.30;0.30;;;21.00;57.60;;;;;;5083455;28;20021;-61
2022/09/18 08:54:51;;;;;;;0.20;0.20;;;21.10;57.40;;;;;;5083483;28;20181;-64
2022/09/18 08:57:18;;;;;;;;;;;21.10;57.40;;;;;;5083795;28;20308;-61
2022/09/18 08:59:51;;;;;;;0.43;0.43;;;21.10;57.40;;;;;;5083396;28;19932;-61
2022/09/18 09:02:38;;;;;;;0.20;0.20;;;21.10;57.30;;;;;;5065474;28;20092;-61
2022/09/18 09:05:13;;;;;;;0.95;0.30;;;21.10;57.30;;;;;;5083293;28;20047;-62
2022/09/18 09:08:16;;;;;;;0.25;0.25;;;21.10;57.10;;;;;;5083246;28;20122;-61
2022/09/18 09:11:07;;;;;;;0.30;0.30;;;21.10;57.30;;;;;;5083231;28;20464;-62
2022/09/18 09:13:42;;;;;;;0.45;0.28;;;21.10;57.40;;;;;;5055702;28;20237;-62
2022/09/18 09:16:15;;;;;;;0.40;0.30;;;21.00;57.50;;;;;;5063113;28;20028;-62
2022/09/18 09:18:44;;;;;;;0.30;0.30;;;21.00;57.50;;;;;;5063419;28;20043;-61
2022/09/18 09:21:54;;;;;;;0.45;0.45;;;21.00;57.90;;;;;;5063076;28;20190;-61
2022/09/18 09:24:34;;;;;;;1.58;0.40;;;21.00;57.80;;;;;;5026321;28;20036;-62
2022/09/18 09:27:12;;;;;;;0.38;0.20;;;21.00;57.80;;;;;;5066983;28;20061;-63
2022/09/18 09:29:42;;;;;;;0.50;0.25;;;20.90;57.40;;;;;;5066931;28;20016;-63
2022/09/18 09:32:30;;;;;;;0.17;0.15;;;20.90;57.30;;;;;;5066915;28;20027;-63
2022/09/18 09:35:15;;;;;;;0.30;0.30;;;20.90;57.70;;;;;;5066875;28;20423;-63
2022/09/18 09:37:45;;;;;;;0.20;0.20;;;20.90;57.70;;;;;;5066759;28;20071;-60
2022/09/18 09:40:31;;;;;;;2.35;0.45;;;20.90;57.70;;;;;;5066976;28;20013;-61
2022/09/18 09:43:25;;;;;;;0.25;0.25;;;21.00;57.50;;;;;;5066546;28;20083;-63
2022/09/18 09:45:55;;;;;;;0.98;0.40;;;21.00;57.80;;;;;;5048859;28;20028;-61
2022/09/18 09:48:32;;;;;;;0.30;0.30;;;21.00;57.70;;;;;;5066490;28;20347;-61
2022/09/18 09:51:22;;;;;;;0.43;0.43;;;21.10;57.40;;;;;;5066554;28;20178;-61
2022/09/18 09:53:48;;;;;;;0.40;0.20;;;21.00;57.40;;;;;;5066459;28;20236;-61
2022/09/18 09:56:29;;;;;;;0.38;0.28;;;21.00;57.30;;;;;;5066398;28;20031;-61
2022/09/18 09:59:24;;;;;;;1.58;0.35;;;21.00;57.40;;;;;;5066377;28;20029;-60
2022/09/18 10:02:04;;;;;;;0.30;0.20;;;21.00;57.40;;;;;;5066348;28;20016;-60
2022/09/18 10:04:46;;;;;;;0.30;0.30;;;21.10;57.40;;;;;;5066213;28;20208;-61
2022/09/18 10:07:16;;;;;;;0.40;0.20;;;21.10;57.20;;;;;;5066276;28;20058;-62
2022/09/18 10:09:56;;;;;;;0.10;0.10;;;21.10;57.00;;;;;;5066211;28;20024;-62
2022/09/18 10:12:39;;;;;;;0.20;0.20;;;21.10;56.90;;;;;;5075189;28;20292;-62
2022/09/18 10:15:17;;;;;;;0.20;0.20;;;21.10;57.30;;;;;;5086110;28;20316;-61
2022/09/18 10:17:47;;;;;;;1.85;0.30;;;21.10;57.30;;;;;;5086128;28;20024;-61
2022/09/18 10:20:24;;;;;;;1.17;0.50;;;21.10;57.30;;;;;;5086023;28;20058;-61
2022/09/18 10:22:50;;;;;;;0.20;0.20;;;21.10;57.30;;;;;;5085959;28;20114;-62
2022/09/18 10:25:26;;;;;;;0.68;0.20;;;21.10;57.40;;;;;;5085917;28;20017;-62
2022/09/18 10:27:52;;;;;;;0.30;0.20;;;21.20;57.40;;;;;;5085913;28;20039;-60
2022/09/18 10:30:18;;;;;;;0.30;0.30;;;21.10;57.40;;;;;;5085876;28;20316;-62
2022/09/18 10:32:44;;;;;;;0.10;0.10;;;21.10;57.60;;;;;;5085785;28;20016;-62
2022/09/18 10:35:25;;;;;;;0.35;0.30;;;21.10;57.60;;;;;;5085473;28;20257;-62
2022/09/18 10:37:51;;;;;;;0.30;0.30;;;21.10;57.60;;;;;;5085700;28;20040;-60
2022/09/18 10:40:35;;;;;;;0.20;0.20;;;21.10;57.60;;;;;;5085673;28;20070;-61
2022/09/18 10:43:02;;;;;;;0.30;0.30;;;21.10;57.60;;;;;;5085557;28;20249;-62
2022/09/18 10:45:35;;;;;;;0.57;0.28;;;21.20;57.50;;;;;;5085556;28;20021;-63
2022/09/18 10:48:22;;;;;;;0.20;0.20;;;21.20;57.50;;;;;;5085532;28;20017;-61
2022/09/18 10:50:54;;;;;;;0.22;0.22;;;21.20;57.50;;;;;;5085475;28;20031;-61
2022/09/18 10:53:33;;;;;;;0.40;0.38;;;21.20;57.50;;;;;;5085668;28;20008;-60
2022/09/18 10:56:16;;;;;;;0.20;0.20;;;21.20;57.50;;;;;;5085412;28;20231;-61
2022/09/18 10:58:43;;;;;;;0.22;0.22;;;21.10;57.50;;;;;;5085333;28;20019;-62
2022/09/18 11:01:10;;;;;;;0.20;0.20;;;21.10;57.60;;;;;;5085547;28;20024;-61
2022/09/18 11:04:04;;;;;;;0.38;0.30;;;21.10;57.60;;;;;;5085112;28;20035;-62
2022/09/18 11:06:33;;;;;;;0.25;0.20;;;21.20;57.60;;;;;;5065254;28;20025;-61
2022/09/18 11:09:01;;;;;;;0.28;0.28;;;21.20;57.60;;;;;;5085054;28;20047;-63
2022/09/18 11:11:34;;;;;;;0.28;0.28;;;21.20;57.50;;;;;;5084889;28;20083;-62
2022/09/18 11:14:20;;;;;;;0.30;0.30;;;21.20;57.40;;;;;;5085018;28;20032;-62
2022/09/18 11:16:53;;;;;;;0.20;0.20;;;21.20;57.40;;;;;;5084937;28;20221;-60
2022/09/18 11:19:27;;;;;;;0.25;0.25;;;21.30;57.40;;;;;;5084892;28;20130;-61
2022/09/18 11:21:55;;;;;;;0.30;0.20;;;21.20;57.30;;;;;;5084841;28;20036;-61
2022/09/18 11:24:24;;;;;;;0.20;0.17;;;21.20;57.40;;;;;;5084361;28;20027;-61
2022/09/18 11:26:53;;;;;;;0.20;0.20;;;21.30;57.30;;;;;;5084758;28;20313;-62
2022/09/18 11:29:32;;;;;;;0.40;0.40;;;21.30;57.40;;;;;;5084664;28;20024;-60
2022/09/18 11:32:02;;;;;;;0.20;0.20;;;21.20;57.40;;;;;;5084656;28;20318;-64
2022/09/18 11:34:31;;;;;;;0.35;0.30;;;21.20;57.50;;;;;;5084585;28;20031;-61
2022/09/18 11:37:01;;;;;;;0.30;0.30;;;21.30;57.50;;;;;;5084482;28;20017;-61
2022/09/18 11:39:35;;;;;;;0.30;0.30;;;21.30;57.40;;;;;;5084477;28;20021;-61
2022/09/18 11:42:06;;;;;;;0.10;0.10;;;21.30;57.50;;;;;;5084463;28;20087;-60
2022/09/18 11:44:33;;;;;;;0.50;0.40;;;21.20;57.50;;;;;;5084350;28;20020;-62
2022/09/18 11:47:08;;;;;;;0.32;0.20;;;21.20;57.50;;;;;;5083689;28;20043;-61
2022/09/18 11:49:46;;;;;;;0.20;0.20;;;21.20;57.60;;;;;;5084372;28;20023;-61
2022/09/18 11:52:21;;;;;;;0.20;0.20;;;21.20;57.60;;;;;;5084261;28;20316;-60
2022/09/18 11:54:58;;;;;;;0.30;0.30;;;21.20;57.60;;;;;;5084214;28;20020;-61
2022/09/18 11:57:31;;;;;;;1.08;0.20;;;21.20;57.60;;;;;;5084280;28;20021;-61
2022/09/18 12:00:05;;;;;;;0.32;0.30;;;21.20;57.70;;;;;;5084172;28;20021;-61
2022/09/18 12:03:08;;;;;;;0.30;0.28;;;21.10;57.60;;;;;;5084420;28;20365;-61
2022/09/18 12:05:50;;;;;;;0.73;0.28;;;21.20;57.60;;;;;;5084065;28;20182;-62
2022/09/18 12:08:35;;;;;;;0.13;0.13;;;21.20;57.60;;;;;;5084008;28;20204;-61
2022/09/18 12:11:23;;;;;;;0.20;0.20;;;21.30;57.60;;;;;;5083916;28;20016;-62
2022/09/18 12:14:19;;;;;;;0.30;0.30;;;21.30;57.50;;;;;;5083934;28;20316;-62
2022/09/18 12:17:19;;;;;;;0.63;0.40;;;21.20;57.50;;;;;;5083897;28;20024;-61
2022/09/18 12:19:53;;;;;;;0.52;0.32;;;21.20;57.50;;;;;;5084411;28;20020;-62
2022/09/18 12:22:41;;;;;;;0.30;0.30;;;21.20;57.50;;;;;;5083820;28;20027;-61
2022/09/18 12:25:15;;;;;;;0.40;0.40;;;21.20;57.50;;;;;;5083972;28;20066;-61
2022/09/18 12:28:07;;;;;;;0.40;0.40;;;21.30;57.40;;;;;;5083711;28;20185;-62
2022/09/18 12:30:57;;;;;;;0.38;0.30;;;21.30;57.40;;;;;;5083673;28;20012;-61
2022/09/18 12:33:34;;;;;;;0.30;0.30;;;21.30;57.50;;;;;;5083682;28;20016;-62
2022/09/18 12:36:06;;;;;;;0.13;0.13;;;21.30;57.50;;;;;;5083663;28;20207;-62
2022/09/18 12:38:38;;;;;;;0.68;0.25;;;21.30;57.30;;;;;;5083671;28;20199;-63
2022/09/18 12:41:18;;;;;;;0.10;0.10;;;21.40;57.30;;;;;;5083531;28;20031;-61
2022/09/18 12:44:02;;;;;;;0.30;0.30;;;21.40;57.10;;;;;;5083537;28;20197;-61
2022/09/18 12:46:37;;;;;;;0.30;0.30;;;21.40;57.30;;;;;;5083556;28;20016;-62
2022/09/18 12:49:33;;;;;;;0.30;0.30;;;21.30;57.40;;;;;;5083537;28;20017;-60
2022/09/18 12:52:18;;;;;;;0.10;0.10;;;21.40;57.30;;;;;;5078757;28;20219;-62
2022/09/18 12:55:00;;;;;;;0.50;0.20;;;21.40;57.10;;;;;;5083473;28;20127;-62
2022/09/18 12:57:45;;;;;;;0.20;0.20;;;21.40;57.30;;;;;;5083472;28;20016;-62
2022/09/18 13:00:15;;;;;;;0.52;0.32;;;21.30;57.40;;;;;;5087878;28;20065;-61
2022/09/18 13:02:50;;;;;;;0.40;0.30;;;21.30;57.60;;;;;;5087534;28;20087;-62
2022/09/18 13:05:28;;;;;;;0.20;0.20;;;21.20;57.60;;;;;;5087483;28;20305;-62
2022/09/18 13:08:07;;;;;;;0.20;0.20;;;21.20;57.60;;;;;;5087543;28;20066;-61
2022/09/18 13:10:44;;;;;;;1.10;0.40;;;21.20;57.70;;;;;;5087367;28;20237;-60
2022/09/18 13:13:47;;;;;;;0.23;0.23;;;21.20;57.70;;;;;;5087271;28;20107;-62